createdAt,value
2022-12-31T00:02:19.390Z,96688.00
2022-12-31T00:04:45.945Z,96688.94
2022-12-31T00:07:12.356Z,96685.78
2022-12-31T00:09:38.921Z,96683.00
2022-12-31T00:12:05.798Z,96693.47
2022-12-31T00:14:32.314Z,96693.72
2022-12-31T00:16:58.824Z,96690.75
2022-12-31T00:19:25.355Z,96686.31
2022-12-31T00:21:51.821Z,96690.16
2022-12-31T00:24:18.327Z,96698.63
2022-12-31T00:26:44.754Z,96696.00
2022-12-31T00:29:11.339Z,96696.44
2022-12-31T00:31:38.491Z,96698.97
2022-12-31T00:34:05.949Z,96683.81
2022-12-31T00:36:35.556Z,96684.47
2022-12-31T00:39:04.686Z,96697.16
2022-12-31T00:41:31.276Z,96693.03
2022-12-31T00:43:58.100Z,96678.88
2022-12-31T00:46:25.198Z,96691.19
2022-12-31T00:48:52.073Z,96705.00
2022-12-31T00:51:22.031Z,96687.47
2022-12-31T00:53:48.848Z,96700.53
2022-12-31T00:56:20.900Z,96712.16
2022-12-31T00:58:48.192Z,96715.59
2022-12-31T01:01:21.233Z,96713.41
2022-12-31T01:03:49.757Z,96704.06
2022-12-31T01:06:17.397Z,96710.09
2022-12-31T01:08:44.565Z,96725.78
2022-12-31T01:11:29.029Z,96724.66
2022-12-31T01:13:59.786Z,96737.31
2022-12-31T01:16:32.381Z,96737.84
2022-12-31T01:19:01.315Z,96742.72
2022-12-31T01:21:29.129Z,96758.38
2022-12-31T01:23:55.798Z,96727.44
2022-12-31T01:26:22.320Z,96758.63
2022-12-31T01:28:48.846Z,96753.13
2022-12-31T01:31:17.627Z,96756.63
2022-12-31T01:33:44.912Z,96735.16
2022-12-31T01:36:17.833Z,96760.22
2022-12-31T01:38:48.602Z,96750.84
2022-12-31T01:41:18.595Z,96755.13
2022-12-31T01:44:00.125Z,96748.44
2022-12-31T01:46:35.553Z,96744.19
2022-12-31T01:49:31.618Z,96745.16
2022-12-31T01:52:04.555Z,96749.41
2022-12-31T01:54:36.696Z,96750.41
2022-12-31T01:57:05.301Z,96753.63
2022-12-31T01:59:33.677Z,96742.13
2022-12-31T02:02:01.497Z,96768.66
2022-12-31T02:04:29.180Z,96758.19
2022-12-31T02:07:09.297Z,96761.03
2022-12-31T02:09:40.401Z,96771.75
2022-12-31T02:12:08.971Z,96766.63
2022-12-31T02:14:40.448Z,96770.63
2022-12-31T02:17:34.033Z,96764.31
2022-12-31T02:20:22.168Z,96770.69
2022-12-31T02:23:09.759Z,96759.19
2022-12-31T02:26:00.535Z,96769.56
2022-12-31T02:28:57.100Z,96771.97
2022-12-31T02:31:32.441Z,96768.56
2022-12-31T02:34:11.688Z,96774.25
2022-12-31T02:36:42.661Z,96776.28
2022-12-31T02:39:11.774Z,96779.25
2022-12-31T02:41:50.095Z,96751.38
2022-12-31T02:44:33.251Z,96774.47
2022-12-31T02:47:08.844Z,96770.63
2022-12-31T02:49:55.639Z,96762.97
2022-12-31T02:52:31.572Z,96762.41
2022-12-31T02:55:25.907Z,96760.81
2022-12-31T02:58:13.786Z,96759.78
2022-12-31T03:01:10.421Z,96782.31
2022-12-31T03:03:38.225Z,96783.56
2022-12-31T03:06:08.219Z,96778.75
2022-12-31T03:08:54.856Z,96788.94
2022-12-31T03:11:39.964Z,96800.66
2022-12-31T03:14:06.475Z,96788.56
2022-12-31T03:16:34.068Z,96804.28
2022-12-31T03:19:19.013Z,96798.28
2022-12-31T03:22:04.265Z,96804.38
2022-12-31T03:24:49.425Z,96801.22
2022-12-31T03:27:18.216Z,96808.72
2022-12-31T03:29:45.401Z,96802.28
2022-12-31T03:32:12.240Z,96809.69
2022-12-31T03:34:38.788Z,96808.22
2022-12-31T03:37:05.254Z,96810.94
2022-12-31T03:39:31.790Z,96807.63
2022-12-31T03:41:58.715Z,96812.84
2022-12-31T03:44:25.167Z,96813.97
2022-12-31T03:46:51.743Z,96792.22
2022-12-31T03:49:18.197Z,96819.88
2022-12-31T03:51:44.663Z,96820.38
2022-12-31T03:54:11.134Z,96820.66
2022-12-31T03:56:37.701Z,96819.59
2022-12-31T03:59:04.236Z,96810.25
2022-12-31T04:01:32.501Z,96813.38
2022-12-31T04:03:59.179Z,96797.16
2022-12-31T04:06:25.614Z,96802.84
2022-12-31T04:08:52.140Z,96799.41
2022-12-31T04:11:20.984Z,96809.91
2022-12-31T04:13:47.702Z,96794.41
2022-12-31T04:16:14.153Z,96814.72
2022-12-31T04:18:40.669Z,96796.50
2022-12-31T04:21:07.239Z,96808.47
2022-12-31T04:23:33.745Z,96809.25
2022-12-31T04:26:00.223Z,96813.38
2022-12-31T04:28:26.867Z,96829.00
2022-12-31T04:30:53.399Z,96830.06
2022-12-31T04:33:19.824Z,96830.16
2022-12-31T04:35:46.319Z,96830.59
2022-12-31T04:38:12.787Z,96823.03
2022-12-31T04:40:59.296Z,96833.47
2022-12-31T04:43:25.805Z,96840.41
2022-12-31T04:45:52.342Z,96838.91
2022-12-31T04:48:18.953Z,96836.50
2022-12-31T04:50:46.416Z,96854.75
2022-12-31T04:53:13.088Z,96846.13
2022-12-31T04:55:41.489Z,96827.75
2022-12-31T04:58:08.115Z,96844.03
2022-12-31T05:00:34.698Z,96850.75
2022-12-31T05:03:01.203Z,96855.78
2022-12-31T05:05:27.731Z,96845.78
2022-12-31T05:07:54.277Z,96861.03
2022-12-31T05:10:20.881Z,96869.41
2022-12-31T05:12:47.386Z,96874.38
2022-12-31T05:15:14.627Z,96870.63
2022-12-31T05:17:44.041Z,96874.31
2022-12-31T05:20:11.573Z,96867.78
2022-12-31T05:22:38.094Z,96867.22
2022-12-31T05:25:05.335Z,96866.66
2022-12-31T05:27:32.010Z,96867.22
2022-12-31T05:29:59.077Z,96861.53
2022-12-31T05:32:25.962Z,96851.97
2022-12-31T05:34:53.621Z,96874.41
2022-12-31T05:37:20.143Z,96867.81
2022-12-31T05:39:46.853Z,96878.50
2022-12-31T05:42:13.306Z,96864.03
2022-12-31T05:44:40.215Z,96872.25
2022-12-31T05:47:07.087Z,96876.34
2022-12-31T05:49:33.625Z,96882.69
2022-12-31T05:52:00.410Z,96872.00
2022-12-31T05:54:26.949Z,96882.63
2022-12-31T05:56:53.350Z,96895.28
2022-12-31T05:59:20.043Z,96903.38
2022-12-31T06:01:47.851Z,96888.19
2022-12-31T06:04:14.371Z,96896.78
2022-12-31T06:06:40.805Z,96902.09
2022-12-31T06:09:07.349Z,96908.16
2022-12-31T06:11:33.772Z,96914.31
2022-12-31T06:14:00.357Z,96918.75
2022-12-31T06:16:27.240Z,96905.53
2022-12-31T06:18:54.351Z,96899.72
2022-12-31T06:21:21.687Z,96911.16
2022-12-31T06:23:48.768Z,96910.53
2022-12-31T06:26:16.352Z,96911.72
2022-12-31T06:28:42.847Z,96905.22
2022-12-31T06:31:11.634Z,96915.13
2022-12-31T06:33:38.335Z,96919.06
2022-12-31T06:36:08.017Z,96908.78
2022-12-31T06:38:38.117Z,96920.78
2022-12-31T06:41:06.089Z,96919.19
2022-12-31T06:43:33.730Z,96932.75
2022-12-31T06:46:02.081Z,96919.63
2022-12-31T06:48:28.648Z,96914.00
2022-12-31T06:50:55.077Z,96929.53
2022-12-31T06:53:22.296Z,96925.25
2022-12-31T06:55:49.530Z,96916.81
2022-12-31T06:58:16.728Z,96925.91
2022-12-31T07:00:56.051Z,96924.50
2022-12-31T07:03:49.183Z,96923.63
2022-12-31T07:06:19.916Z,96933.28
2022-12-31T07:09:02.370Z,96919.53
2022-12-31T07:11:56.477Z,96932.25
2022-12-31T07:14:37.242Z,96938.16
2022-12-31T07:17:25.003Z,96941.75
2022-12-31T07:20:05.286Z,96944.50
2022-12-31T07:22:32.131Z,96955.13
2022-12-31T07:24:59.207Z,96950.25
2022-12-31T07:27:45.483Z,96952.97
2022-12-31T07:30:19.864Z,96956.25
2022-12-31T07:33:17.129Z,96956.59
2022-12-31T07:36:03.942Z,96972.66
2022-12-31T07:39:01.486Z,96964.72
2022-12-31T07:41:41.175Z,96977.16
2022-12-31T07:44:47.970Z,96970.31
2022-12-31T07:47:34.896Z,96973.28
2022-12-31T07:50:02.499Z,96957.63
2022-12-31T07:52:29.381Z,96983.31
2022-12-31T07:54:55.838Z,96972.91
2022-12-31T07:57:27.303Z,96985.69
2022-12-31T08:00:08.081Z,96999.72
2022-12-31T08:03:01.809Z,96992.91
2022-12-31T08:05:34.289Z,96991.56
2022-12-31T08:08:31.443Z,96994.28
2022-12-31T08:11:18.661Z,97000.34
2022-12-31T08:13:45.779Z,96992.94
2022-12-31T08:16:13.447Z,97002.03
2022-12-31T08:18:40.957Z,96995.38
2022-12-31T08:21:14.237Z,96999.81
2022-12-31T08:23:55.849Z,97012.03
2022-12-31T08:26:40.883Z,97003.44
2022-12-31T08:29:29.141Z,96994.41
2022-12-31T08:32:18.319Z,96998.47
2022-12-31T08:34:58.459Z,97005.31
2022-12-31T08:37:39.849Z,97018.75
2022-12-31T08:40:30.506Z,97017.47
2022-12-31T08:43:23.562Z,97024.19
2022-12-31T08:45:53.213Z,97025.97
2022-12-31T08:48:31.716Z,97028.44
2022-12-31T08:50:58.691Z,97027.59
2022-12-31T08:53:26.011Z,97046.28
2022-12-31T08:55:59.503Z,97042.38
2022-12-31T08:58:49.048Z,97048.22
2022-12-31T09:01:22.172Z,97047.16
2022-12-31T09:03:57.828Z,97042.69
2022-12-31T09:06:36.076Z,97049.91
2022-12-31T09:09:30.168Z,97041.81
2022-12-31T09:12:24.714Z,97058.78
2022-12-31T09:15:13.129Z,97047.81
2022-12-31T09:17:39.624Z,97051.88
2022-12-31T09:20:06.371Z,97050.22
2022-12-31T09:22:33.070Z,97051.78
2022-12-31T09:25:00.012Z,97046.31
2022-12-31T09:27:37.857Z,97050.84
2022-12-31T09:30:11.690Z,97053.47
2022-12-31T09:33:12.512Z,97053.59
2022-12-31T09:35:50.378Z,97048.94
2022-12-31T09:38:20.526Z,97050.97
2022-12-31T09:41:12.499Z,97053.06
2022-12-31T09:44:26.603Z,97047.44
2022-12-31T09:47:11.418Z,97062.13
2022-12-31T09:50:08.569Z,97064.13
2022-12-31T09:52:47.239Z,97062.38
2022-12-31T09:55:48.420Z,97075.94
2022-12-31T09:58:38.701Z,97081.28
2022-12-31T10:01:31.090Z,97080.72
2022-12-31T10:04:34.668Z,97087.63
2022-12-31T10:07:13.313Z,97071.75
2022-12-31T10:10:02.310Z,97084.56
2022-12-31T10:12:50.181Z,97086.06
2022-12-31T10:16:06.064Z,97082.94
2022-12-31T10:19:00.164Z,97075.28
2022-12-31T10:22:14.530Z,97081.09
2022-12-31T10:24:56.957Z,97063.72
2022-12-31T10:27:38.466Z,97070.91
2022-12-31T10:30:18.492Z,97073.03
2022-12-31T10:32:45.018Z,97073.69
2022-12-31T10:35:19.539Z,97079.47
2022-12-31T10:37:59.540Z,97078.69
2022-12-31T10:41:04.641Z,97081.50
2022-12-31T10:44:03.951Z,97070.84
2022-12-31T10:46:54.808Z,97075.53
2022-12-31T10:50:03.927Z,97070.56
2022-12-31T10:53:01.049Z,97077.56
2022-12-31T10:55:40.093Z,97073.78
2022-12-31T10:58:44.423Z,97064.38
2022-12-31T11:01:30.683Z,97065.97
2022-12-31T11:04:24.645Z,97057.59
2022-12-31T11:07:00.257Z,97064.09
2022-12-31T11:09:51.403Z,97054.19
2022-12-31T11:12:17.881Z,97053.94
2022-12-31T11:14:50.913Z,97038.63
2022-12-31T11:33:21.017Z,97017.38
2022-12-31T11:36:05.715Z,97019.75
2022-12-31T11:38:40.679Z,97005.94
2022-12-31T11:41:39.624Z,97010.44
2022-12-31T11:44:19.598Z,96997.38
2022-12-31T11:47:04.591Z,97011.28
2022-12-31T11:49:55.338Z,97006.97
2022-12-31T11:52:39.661Z,97000.22
2022-12-31T11:55:24.270Z,96998.03
2022-12-31T11:57:51.928Z,96989.69
2022-12-31T12:00:25.750Z,97000.19
2022-12-31T12:03:02.392Z,96991.34
2022-12-31T12:05:30.057Z,96967.25
2022-12-31T12:07:57.134Z,96970.50
2022-12-31T12:10:41.995Z,96981.56
2022-12-31T12:13:13.641Z,96977.81
2022-12-31T12:15:44.708Z,96984.75
2022-12-31T12:18:24.524Z,96979.38
2022-12-31T12:20:51.276Z,96979.06
2022-12-31T12:23:24.789Z,96976.31
2022-12-31T12:25:51.835Z,96979.63
2022-12-31T12:28:18.338Z,96976.50
2022-12-31T12:30:46.271Z,96969.53
2022-12-31T12:33:18.332Z,96969.88
2022-12-31T12:35:45.506Z,96974.78
2022-12-31T12:38:21.388Z,96972.31
2022-12-31T12:41:00.265Z,96978.38
2022-12-31T12:43:30.135Z,96977.97
2022-12-31T12:46:23.103Z,96987.09
2022-12-31T12:48:56.039Z,96975.16
2022-12-31T12:51:47.744Z,96968.81
2022-12-31T12:54:32.534Z,96972.78
2022-12-31T12:57:15.899Z,96967.13
2022-12-31T13:00:04.616Z,96972.84
2022-12-31T13:02:37.175Z,96971.81
2022-12-31T13:05:21.673Z,96974.34
2022-12-31T13:08:30.292Z,96973.06
2022-12-31T13:11:26.573Z,96977.25
2022-12-31T13:14:23.612Z,96945.50
2022-12-31T13:16:55.368Z,96947.53
2022-12-31T13:19:30.701Z,96961.72
2022-12-31T13:22:12.562Z,96954.09
2022-12-31T13:25:06.665Z,96965.38
2022-12-31T13:27:43.882Z,96954.09
2022-12-31T13:30:19.492Z,96965.66
2022-12-31T13:33:01.217Z,96966.00
2022-12-31T13:35:38.195Z,96955.53
2022-12-31T13:38:28.449Z,96960.03
2022-12-31T13:41:01.755Z,96969.47
2022-12-31T13:43:47.315Z,96956.06
2022-12-31T13:46:52.697Z,96966.75
2022-12-31T13:49:25.116Z,96961.41
2022-12-31T13:51:59.590Z,96957.31
2022-12-31T13:54:38.421Z,96967.19
2022-12-31T13:57:16.946Z,96959.72
2022-12-31T13:59:48.573Z,96964.94
2022-12-31T14:02:40.548Z,96961.94
2022-12-31T14:05:19.967Z,96950.34
2022-12-31T14:07:52.594Z,96950.50
2022-12-31T14:10:27.723Z,96945.66
2022-12-31T14:13:10.805Z,96942.19
2022-12-31T14:16:15.965Z,96955.22
2022-12-31T14:18:50.724Z,96960.16
2022-12-31T14:21:23.747Z,96957.63
2022-12-31T14:24:05.233Z,96957.69
2022-12-31T14:26:36.057Z,96960.09
2022-12-31T14:29:31.353Z,96974.78
2022-12-31T14:32:19.602Z,96973.72
2022-12-31T14:35:23.996Z,96981.56
2022-12-31T14:37:59.380Z,96988.50
2022-12-31T14:40:41.689Z,96986.78
2022-12-31T14:43:38.233Z,96972.03
2022-12-31T14:46:42.706Z,96984.13
2022-12-31T14:49:18.209Z,96986.97
2022-12-31T14:51:44.974Z,96990.69
2022-12-31T14:54:28.969Z,96994.84
2022-12-31T14:56:55.881Z,96998.97
2022-12-31T14:59:28.298Z,96995.88
2022-12-31T15:01:56.939Z,96984.88
2022-12-31T15:04:32.726Z,96984.41
2022-12-31T15:07:25.438Z,96982.22
2022-12-31T15:10:44.700Z,96985.06
2022-12-31T15:13:19.496Z,96986.72
2022-12-31T15:16:11.598Z,96979.72
2022-12-31T15:18:50.955Z,96970.63
2022-12-31T15:21:44.937Z,96995.31
2022-12-31T15:24:24.183Z,96982.22
2022-12-31T15:27:32.350Z,96996.84
2022-12-31T15:30:00.884Z,96985.00
2022-12-31T15:32:42.612Z,96990.03
2022-12-31T15:35:21.502Z,96994.94
2022-12-31T15:38:19.274Z,96994.63
2022-12-31T15:40:51.639Z,96984.66
2022-12-31T15:43:24.343Z,96987.06
2022-12-31T15:45:56.030Z,96976.81
2022-12-31T15:48:31.211Z,96981.50
2022-12-31T15:51:00.480Z,96988.69
2022-12-31T15:53:32.230Z,96980.03
2022-12-31T15:56:00.646Z,96991.19
2022-12-31T15:58:31.627Z,96999.63
2022-12-31T16:01:15.742Z,96994.38
2022-12-31T16:03:46.330Z,97005.81
2022-12-31T16:06:15.353Z,97004.31
2022-12-31T16:08:47.041Z,97007.75
2022-12-31T16:11:14.784Z,97000.44
2022-12-31T16:13:45.697Z,97004.66
2022-12-31T16:16:24.897Z,97009.72
2022-12-31T16:18:53.079Z,97002.75
2022-12-31T16:21:37.407Z,96991.78
2022-12-31T16:24:06.010Z,97013.88
2022-12-31T16:26:54.690Z,97012.16
2022-12-31T16:29:23.982Z,97010.97
2022-12-31T16:31:55.629Z,97022.38
2022-12-31T16:34:27.875Z,97016.22
2022-12-31T16:37:02.511Z,97022.72
2022-12-31T16:39:34.179Z,97026.47
2022-12-31T16:42:14.804Z,97022.66
2022-12-31T16:44:41.985Z,97009.72
2022-12-31T16:47:13.918Z,97021.34
2022-12-31T16:49:41.598Z,97014.56
2022-12-31T16:52:24.265Z,97020.81
2022-12-31T16:54:51.310Z,97010.06
2022-12-31T16:57:22.543Z,96989.59
2022-12-31T16:59:54.575Z,97018.44
2022-12-31T17:02:27.642Z,97006.47
2022-12-31T17:04:56.438Z,97028.94
2022-12-31T17:07:32.312Z,97022.19
2022-12-31T17:10:24.448Z,97027.66
2022-12-31T17:15:44.974Z,97022.63
2022-12-31T17:18:19.387Z,97036.38
2022-12-31T17:20:46.896Z,97030.72
2022-12-31T17:23:31.809Z,97023.09
2022-12-31T17:26:01.035Z,97032.84
2022-12-31T17:28:37.669Z,97013.41
2022-12-31T17:31:29.000Z,97031.88
2022-12-31T17:34:13.179Z,97035.16
2022-12-31T17:37:00.375Z,97030.34
2022-12-31T17:39:39.449Z,97034.56
2022-12-31T17:42:09.702Z,97030.94
2022-12-31T17:44:39.403Z,97036.19
2022-12-31T17:47:08.386Z,97020.50
2022-12-31T17:49:36.559Z,97030.19
2022-12-31T17:52:03.300Z,97038.56
2022-12-31T17:54:29.868Z,97034.97
2022-12-31T17:56:57.564Z,97035.84
2022-12-31T17:59:25.695Z,97037.88
2022-12-31T18:01:52.495Z,97038.69
2022-12-31T18:04:20.756Z,97044.59
2022-12-31T18:06:47.263Z,97041.81
2022-12-31T18:09:14.237Z,97041.03
2022-12-31T18:11:41.266Z,97043.28
2022-12-31T18:14:08.228Z,97046.09
2022-12-31T18:16:34.799Z,97049.88
2022-12-31T18:19:01.582Z,97025.16
2022-12-31T18:21:32.588Z,97053.59
2022-12-31T18:26:27.986Z,97056.66
2022-12-31T18:28:54.798Z,97015.03
2022-12-31T18:31:24.675Z,97059.47
2022-12-31T18:33:52.553Z,97062.88
2022-12-31T18:36:21.441Z,97063.97
2022-12-31T18:38:48.531Z,97067.22
2022-12-31T18:41:21.424Z,97072.69
2022-12-31T18:43:48.591Z,97069.63
2022-12-31T18:46:18.183Z,97069.34
2022-12-31T18:48:45.060Z,97065.31
2022-12-31T18:51:17.028Z,97080.09
2022-12-31T18:53:43.859Z,97076.69
2022-12-31T18:56:13.276Z,97076.09
2022-12-31T18:58:40.780Z,97086.56
2022-12-31T19:01:31.703Z,97089.09
2022-12-31T19:04:27.624Z,97078.22
2022-12-31T19:06:56.007Z,97076.69
2022-12-31T19:09:44.767Z,97045.91
2022-12-31T19:12:14.303Z,97077.94
2022-12-31T19:14:41.007Z,97073.28
2022-12-31T19:19:34.650Z,97101.50
2022-12-31T19:22:01.594Z,97116.16
2022-12-31T19:24:28.521Z,97106.28
2022-12-31T19:26:55.162Z,97068.88
2022-12-31T19:29:27.305Z,97116.16
2022-12-31T19:31:54.255Z,97115.53
2022-12-31T19:34:21.150Z,97117.19
2022-12-31T19:36:47.746Z,97114.00
2022-12-31T19:39:17.417Z,97118.00
2022-12-31T19:41:44.801Z,97126.84
2022-12-31T19:44:16.503Z,97110.03
2022-12-31T19:46:43.102Z,97111.25
2022-12-31T19:49:13.916Z,97118.72
2022-12-31T19:51:40.770Z,97123.53
2022-12-31T19:54:07.712Z,97134.66
2022-12-31T19:56:34.388Z,97139.69
2022-12-31T19:59:09.415Z,97127.19
2022-12-31T20:01:36.140Z,97137.69
2022-12-31T20:04:02.780Z,97128.50
2022-12-31T20:06:29.271Z,97145.75
2022-12-31T20:08:55.927Z,97136.53
2022-12-31T20:11:24.143Z,97141.75
2022-12-31T20:13:52.386Z,97142.75
2022-12-31T20:16:21.075Z,97148.63
2022-12-31T20:18:48.027Z,97134.19
2022-12-31T20:21:20.866Z,97148.25
2022-12-31T20:23:48.997Z,97151.88
2022-12-31T20:26:15.893Z,97130.25
2022-12-31T20:28:42.501Z,97140.47
2022-12-31T20:31:11.836Z,97145.31
2022-12-31T20:33:38.447Z,97136.69
2022-12-31T20:36:06.845Z,97122.66
2022-12-31T20:38:33.725Z,97141.44
2022-12-31T20:41:08.831Z,97144.28
2022-12-31T20:43:36.136Z,97142.69
2022-12-31T20:46:14.056Z,97139.09
2022-12-31T20:48:41.437Z,97114.84
2022-12-31T20:51:08.118Z,97136.53
2022-12-31T20:53:34.603Z,97133.53
2022-12-31T20:56:08.315Z,97131.97
2022-12-31T20:58:35.005Z,97137.19
2022-12-31T21:01:06.744Z,97141.81
2022-12-31T21:06:22.932Z,97134.34
2022-12-31T21:08:49.704Z,97133.59
2022-12-31T21:11:35.071Z,97142.81
2022-12-31T21:14:02.193Z,97133.22
2022-12-31T21:16:28.826Z,97143.63
2022-12-31T21:18:55.860Z,97138.00
2022-12-31T21:21:22.511Z,97140.19
2022-12-31T21:23:49.279Z,97117.34
2022-12-31T21:26:15.810Z,97137.41
2022-12-31T21:28:42.257Z,97148.25
2022-12-31T21:31:11.589Z,97124.41
2022-12-31T21:33:38.524Z,97133.81
2022-12-31T21:36:05.319Z,97143.66
2022-12-31T21:38:32.035Z,97133.63
2022-12-31T21:41:03.528Z,97133.22
2022-12-31T21:43:30.305Z,97130.38
2022-12-31T21:46:07.343Z,97134.44
2022-12-31T21:48:34.367Z,97126.78
2022-12-31T21:51:09.733Z,97141.06
2022-12-31T21:53:37.506Z,97133.22
2022-12-31T21:56:16.120Z,97129.00
2022-12-31T21:59:08.556Z,97136.84
2022-12-31T22:01:53.920Z,97133.63
2022-12-31T22:04:59.848Z,97131.63
2022-12-31T22:07:07.161Z,97140.66
2022-12-31T22:09:33.727Z,97118.59
2022-12-31T22:12:00.188Z,97143.44
2022-12-31T22:14:26.633Z,97142.06
2022-12-31T22:16:53.172Z,97146.91
2022-12-31T22:19:19.629Z,97146.91
2022-12-31T22:21:46.246Z,97139.88
2022-12-31T22:24:12.797Z,97149.50
2022-12-31T22:26:44.554Z,97163.16
2022-12-31T22:29:12.947Z,97166.16
2022-12-31T22:31:39.498Z,97167.97
2022-12-31T22:34:06.040Z,97171.19
2022-12-31T22:36:32.590Z,97168.38
2022-12-31T22:38:59.109Z,97172.38
2022-12-31T22:41:26.708Z,97174.41
2022-12-31T22:44:02.277Z,97172.59
2022-12-31T22:46:30.065Z,97168.41
2022-12-31T22:48:58.740Z,97189.06
2022-12-31T22:51:54.985Z,97182.84
2022-12-31T22:54:12.804Z,97161.16
2022-12-31T22:56:39.377Z,97176.03
2022-12-31T22:59:05.952Z,97174.63
2022-12-31T23:18:21.454Z,97175.34
2022-12-31T23:21:06.787Z,97183.81
2022-12-31T23:23:33.292Z,97191.47
2022-12-31T23:26:00.657Z,97193.50
2022-12-31T23:28:27.273Z,97193.09
2022-12-31T23:30:54.059Z,97173.19
2022-12-31T23:33:24.002Z,97191.69
2022-12-31T23:36:01.038Z,97187.66
2022-12-31T23:38:27.420Z,97188.69
2022-12-31T23:40:53.953Z,97173.78
2022-12-31T23:43:21.608Z,97190.66
2022-12-31T23:45:49.298Z,97197.06
2022-12-31T23:48:15.765Z,97194.84
2022-12-31T23:50:45.392Z,97199.69
2022-12-31T23:53:15.779Z,97198.03
2022-12-31T23:55:42.397Z,97202.66
2022-12-31T23:58:08.959Z,97210.28
